Time,TemperatureF,DewpointF,PressureIn,WindDirection,WindDirectionDegrees,WindSpeedMPH,WindSpeedGustMPH,Humidity,HourlyPrecipIn,Conditions,Clouds,dailyrainin,SoftwareType,DateUTC
2013-02-18 00:00:00,27.7,20.8,29.60,SE,135,9.8,9.8,75,0.00,,,0.00,WUHU216HW,2013-02-18 06:00:00,
2013-02-18 00:05:00,27.7,20.8,29.60,SE,135,9.8,9.8,75,0.00,,,0.00,WUHU216HW,2013-02-18 06:05:00,
2013-02-18 00:30:00,27.9,21.0,29.59,SE,135,8.1,8.1,75,0.00,,,0.00,WUHU216HW,2013-02-18 06:30:00,
2013-02-18 00:35:00,27.9,21.0,29.59,SSE,158,9.2,9.2,75,0.00,,,0.00,WUHU216HW,2013-02-18 06:35:00,
2013-02-18 00:40:00,27.9,21.0,29.59,SSE,158,9.2,9.2,75,0.00,,,0.00,WUHU216HW,2013-02-18 06:40:00,
2013-02-18 01:00:00,27.5,20.6,29.57,SSE,158,7.2,7.2,75,0.00,,,0.00,WUHU216HW,2013-02-18 07:00:00,
2013-02-18 01:05:00,27.5,20.6,29.57,SSE,158,7.2,7.2,75,0.00,,,0.00,WUHU216HW,2013-02-18 07:05:00,
2013-02-18 01:30:00,27.0,20.1,29.56,SE,135,8.1,8.1,75,0.00,,,0.00,WUHU216HW,2013-02-18 07:30:00,
2013-02-18 01:35:00,27.0,20.1,29.56,SE,135,8.1,8.1,75,0.00,,,0.00,WUHU216HW,2013-02-18 07:35:00,
2013-02-18 02:00:00,26.8,20.2,29.54,ESE,113,8.1,8.1,76,0.00,,,0.00,WUHU216HW,2013-02-18 08:00:00,
2013-02-18 02:05:00,26.8,20.2,29.54,ESE,113,8.1,8.1,76,0.00,,,0.00,WUHU216HW,2013-02-18 08:05:00,
2013-02-18 02:30:00,26.5,19.9,29.53,SSE,158,8.9,8.9,76,0.00,,,0.00,WUHU216HW,2013-02-18 08:30:00,
2013-02-18 02:35:00,26.5,19.9,29.53,SSE,158,8.9,8.9,76,0.00,,,0.00,WUHU216HW,2013-02-18 08:35:00,
2013-02-18 03:00:00,26.5,20.2,29.52,SE,135,11.2,11.2,77,0.00,,,0.00,WUHU216HW,2013-02-18 09:00:00,
2013-02-18 03:05:00,26.5,20.2,29.52,SE,135,11.2,11.2,77,0.00,,,0.00,WUHU216HW,2013-02-18 09:05:00,
2013-02-18 03:30:00,26.3,20.0,29.52,SSE,158,6.7,6.7,77,0.00,,,0.00,WUHU216HW,2013-02-18 09:30:00,
2013-02-18 03:35:00,26.3,20.0,29.52,SSE,158,6.7,6.7,77,0.00,,,0.00,WUHU216HW,2013-02-18 09:35:00,
2013-02-18 04:00:00,26.1,20.2,29.50,SSE,158,7.4,7.4,78,0.00,,,0.00,WUHU216HW,2013-02-18 10:00:00,
2013-02-18 04:05:00,26.1,20.2,29.50,SSE,158,7.4,7.4,78,0.00,,,0.00,WUHU216HW,2013-02-18 10:05:00,
2013-02-18 04:30:00,26.6,20.6,29.49,South,180,7.4,7.4,78,0.00,,,0.00,WUHU216HW,2013-02-18 10:30:00,
2013-02-18 04:35:00,26.6,20.6,29.49,South,180,7.4,7.4,78,0.00,,,0.00,WUHU216HW,2013-02-18 10:35:00,
2013-02-18 04:40:00,26.6,20.6,29.49,South,180,7.4,7.4,78,0.00,,,0.00,WUHU216HW,2013-02-18 10:40:00,
2013-02-18 05:00:00,27.0,21.0,29.50,SSE,158,3.4,3.4,78,0.00,,,0.00,WUHU216HW,2013-02-18 11:00:00,
2013-02-18 05:05:00,27.0,21.0,29.50,SSE,158,3.4,3.4,78,0.00,,,0.00,WUHU216HW,2013-02-18 11:05:00,
2013-02-18 05:30:00,27.2,21.2,29.48,ESE,113,4.5,4.5,78,0.00,,,0.00,WUHU216HW,2013-02-18 11:30:00,
2013-02-18 05:35:00,27.2,21.2,29.48,ESE,113,4.5,4.5,78,0.00,,,0.00,WUHU216HW,2013-02-18 11:35:00,
2013-02-18 06:00:00,27.4,21.3,29.48,WNW,293,1.3,1.3,78,0.00,,,0.00,WUHU216HW,2013-02-18 12:00:00,
2013-02-18 06:05:00,27.4,21.3,29.48,WNW,293,1.3,1.3,78,0.00,,,0.00,WUHU216HW,2013-02-18 12:05:00,
2013-02-18 06:30:00,27.5,21.5,29.49,ESE,113,0.4,0.4,78,0.00,,,0.00,WUHU216HW,2013-02-18 12:30:00,
2013-02-18 06:35:00,27.5,21.5,29.49,SW,227,0.9,1.6,78,0.00,,,0.00,WUHU216HW,2013-02-18 12:35:00,
2013-02-18 06:40:00,27.7,22.1,29.49,WNW,294,2.5,3.1,79,0.00,,,0.00,WUHU216HW,2013-02-18 12:40:00,
2013-02-18 06:45:00,27.7,22.1,29.49,WSW,248,1.1,3.1,79,0.00,,,0.00,WUHU216HW,2013-02-18 12:45:00,
2013-02-18 06:50:00,27.7,22.1,29.49,WSW,248,1.1,1.8,79,0.00,,,0.00,WUHU216HW,2013-02-18 12:50:00,
2013-02-18 07:00:00,27.9,21.9,29.49,NW,315,0.0,0.0,78,0.00,,,0.00,WUHU216HW,2013-02-18 13:00:00,
2013-02-18 07:05:00,27.9,21.9,29.49,NW,315,0.0,0.0,78,0.00,,,0.00,WUHU216HW,2013-02-18 13:05:00,
2013-02-18 07:10:00,27.9,21.9,29.49,NW,315,0.0,0.0,78,0.00,,,0.00,WUHU216HW,2013-02-18 13:10:00,
2013-02-18 07:30:00,27.9,22.2,29.49,South,180,1.1,1.1,79,0.00,,,0.00,WUHU216HW,2013-02-18 13:30:00,
2013-02-18 07:35:00,27.9,22.2,29.49,SE,135,0.7,1.1,79,0.00,,,0.00,WUHU216HW,2013-02-18 13:35:00,
2013-02-18 07:40:00,27.9,22.2,29.49,SE,135,0.7,0.7,79,0.00,,,0.00,WUHU216HW,2013-02-18 13:40:00,
2013-02-18 08:00:00,28.4,22.4,29.49,SW,225,0.7,0.7,78,0.00,,,0.00,WUHU216HW,2013-02-18 14:00:00,
2013-02-18 08:05:00,28.4,22.4,29.49,SW,225,0.7,0.7,78,0.00,,,0.00,WUHU216HW,2013-02-18 14:05:00,
2013-02-18 08:30:00,29.5,23.5,29.49,SSE,158,0.7,0.7,78,0.00,,,0.00,WUHU216HW,2013-02-18 14:30:00,
2013-02-18 08:35:00,29.5,23.5,29.49,SSE,158,0.7,0.7,78,0.00,,,0.00,WUHU216HW,2013-02-18 14:35:00,
2013-02-18 09:30:00,30.4,24.4,29.51,SW,225,4.7,4.7,78,0.00,,,0.00,WUHU216HW,2013-02-18 15:30:00,
2013-02-18 09:35:00,30.4,24.4,29.51,SW,225,4.7,4.7,78,0.00,,,0.00,WUHU216HW,2013-02-18 15:35:00,
2013-02-18 11:30:00,32.0,26.0,29.52,WNW,293,8.3,8.3,78,0.00,,,0.00,WUHU216HW,2013-02-18 17:30:00,
2013-02-18 11:35:00,32.0,26.0,29.52,WNW,293,8.3,8.3,78,0.00,,,0.00,WUHU216HW,2013-02-18 17:35:00,
2013-02-18 12:00:00,31.7,25.7,29.53,West,270,9.8,9.8,78,0.00,,,0.00,WUHU216HW,2013-02-18 18:00:00,
2013-02-18 12:05:00,31.7,25.7,29.53,West,270,9.8,9.8,78,0.00,,,0.00,WUHU216HW,2013-02-18 18:05:00,
2013-02-18 13:00:00,27.7,20.8,29.53,West,270,11.9,11.9,75,0.00,,,0.00,WUHU216HW,2013-02-18 19:00:00,
2013-02-18 13:05:00,27.7,20.8,29.53,West,270,11.9,11.9,75,0.00,,,0.00,WUHU216HW,2013-02-18 19:05:00,
2013-02-18 14:00:00,25.7,18.3,29.55,WNW,293,19.0,19.0,73,0.00,,,0.00,WUHU216HW,2013-02-18 20:00:00,
2013-02-18 14:05:00,25.7,18.3,29.55,NW,315,16.3,19.0,73,0.00,,,0.00,WUHU216HW,2013-02-18 20:05:00,
2013-02-18 14:10:00,25.7,18.3,29.55,NW,315,16.3,17.9,73,0.00,,,0.00,WUHU216HW,2013-02-18 20:10:00,
2013-02-18 14:30:00,24.1,16.7,29.56,NW,315,15.4,15.4,73,0.00,,,0.00,WUHU216HW,2013-02-18 20:30:00,
2013-02-18 14:35:00,24.1,16.7,29.56,NW,315,15.4,15.4,73,0.00,,,0.00,WUHU216HW,2013-02-18 20:35:00,
2013-02-18 14:36:00,24.1,16.7,29.56,NW,315,15.4,15.4,73,0.00,,,0.00,WUHU216HW,2013-02-18 20:36:00,
2013-02-18 15:00:00,23.4,15.7,29.58,West,270,13.9,13.9,72,0.00,,,0.00,WUHU216HW,2013-02-18 21:00:00,
2013-02-18 15:01:00,23.0,15.7,29.58,WNW,293,14.3,15.7,73,0.00,,,0.00,WUHU216HW,2013-02-18 21:01:00,
2013-02-18 15:05:00,23.0,15.7,29.58,WNW,293,14.3,17.4,73,0.00,,,0.00,WUHU216HW,2013-02-18 21:05:00,
2013-02-18 15:10:00,23.0,15.7,29.58,WNW,293,14.3,17.4,73,0.00,,,0.00,WUHU216HW,2013-02-18 21:10:00,
2013-02-18 15:31:00,22.0,14.6,29.59,WNW,293,13.4,13.4,73,0.00,,,0.00,WUHU216HW,2013-02-18 21:31:00,
2013-02-18 15:36:00,22.0,14.6,29.59,WNW,293,13.4,13.4,73,0.00,,,0.00,WUHU216HW,2013-02-18 21:36:00,
2013-02-18 15:37:00,22.0,14.6,29.59,WNW,293,13.4,13.4,73,0.00,,,0.00,WUHU216HW,2013-02-18 21:37:00,
2013-02-18 16:00:00,21.2,14.2,29.60,NW,315,11.4,11.4,74,0.00,,,0.00,WUHU216HW,2013-02-18 22:00:00,
2013-02-18 16:04:00,21.2,14.2,29.61,NW,315,9.4,9.4,74,0.00,,,0.00,WUHU216HW,2013-02-18 22:04:00,
2013-02-18 16:05:00,21.2,14.2,29.61,WNW,300,9.9,12.5,74,0.00,,,0.00,WUHU216HW,2013-02-18 22:05:00,
2013-02-18 16:10:00,21.2,14.2,29.61,NW,315,9.4,12.5,74,0.00,,,0.00,WUHU216HW,2013-02-18 22:10:00,
2013-02-18 16:34:00,20.3,13.3,29.62,NNW,338,7.4,7.4,74,0.00,,,0.00,WUHU216HW,2013-02-18 22:34:00,
2013-02-18 16:39:00,20.3,13.3,29.62,NNW,338,7.4,7.4,74,0.00,,,0.00,WUHU216HW,2013-02-18 22:39:00,
2013-02-18 17:00:00,20.3,13.3,29.63,NW,315,11.9,11.9,74,0.00,,,0.00,WUHU216HW,2013-02-18 23:00:00,
2013-02-18 17:05:00,20.3,13.3,29.63,NW,315,11.9,11.9,74,0.00,,,0.00,WUHU216HW,2013-02-18 23:05:00,
2013-02-18 17:30:00,19.8,12.8,29.64,NW,315,11.0,11.0,74,0.00,,,0.00,WUHU216HW,2013-02-18 23:30:00,
2013-02-18 17:35:00,19.8,12.8,29.64,NW,315,19.2,19.2,74,0.00,,,0.00,WUHU216HW,2013-02-18 23:35:00,
2013-02-18 17:40:00,19.8,12.8,29.64,NW,315,19.2,19.2,74,0.00,,,0.00,WUHU216HW,2013-02-18 23:40:00,
2013-02-18 18:00:00,19.1,12.1,29.65,WSW,248,9.2,9.2,74,0.00,,,0.00,WUHU216HW,2013-02-19 00:00:00,
2013-02-18 18:05:00,19.1,12.1,29.65,NW,315,10.1,10.1,74,0.00,,,0.00,WUHU216HW,2013-02-19 00:05:00,
2013-02-18 18:10:00,19.1,12.1,29.65,NW,315,10.1,10.1,74,0.00,,,0.00,WUHU216HW,2013-02-19 00:10:00,
2013-02-18 18:30:00,18.0,10.7,29.66,WNW,293,16.1,16.1,73,0.00,,,0.00,WUHU216HW,2013-02-19 00:30:00,
2013-02-18 18:35:00,18.0,10.7,29.66,WNW,293,16.1,16.1,73,0.00,,,0.00,WUHU216HW,2013-02-19 00:35:00,
2013-02-18 18:36:00,18.0,10.7,29.66,WNW,293,16.1,16.1,73,0.00,,,0.00,WUHU216HW,2013-02-19 00:36:00,
2013-02-18 19:00:00,17.6,10.7,29.67,NW,315,13.0,13.0,74,0.00,,,0.00,WUHU216HW,2013-02-19 01:00:00,
2013-02-18 19:05:00,17.6,10.7,29.67,WNW,293,13.6,13.6,74,0.00,,,0.00,WUHU216HW,2013-02-19 01:05:00,
2013-02-18 19:10:00,17.6,10.7,29.67,WNW,293,13.6,13.6,74,0.00,,,0.00,WUHU216HW,2013-02-19 01:10:00,
2013-02-18 19:30:00,17.5,10.5,29.68,NNW,338,7.2,7.2,74,0.00,,,0.00,WUHU216HW,2013-02-19 01:30:00,
2013-02-18 19:35:00,17.5,10.5,29.68,NNW,338,7.2,7.2,74,0.00,,,0.00,WUHU216HW,2013-02-19 01:35:00,
2013-02-18 19:36:00,17.5,10.5,29.68,NNW,338,7.2,7.2,74,0.00,,,0.00,WUHU216HW,2013-02-19 01:36:00,
2013-02-18 20:00:00,17.1,9.9,29.69,WNW,293,13.4,13.4,73,0.00,,,0.00,WUHU216HW,2013-02-19 02:00:00,
2013-02-18 20:05:00,16.9,9.5,29.69,NW,315,19.2,19.2,72,0.00,,,0.00,WUHU216HW,2013-02-19 02:05:00,
2013-02-18 20:10:00,16.9,9.5,29.69,NW,315,19.2,19.2,72,0.00,,,0.00,WUHU216HW,2013-02-19 02:10:00,
2013-02-18 20:30:00,16.2,9.6,29.70,NNW,338,8.3,8.3,75,0.00,,,0.00,WUHU216HW,2013-02-19 02:30:00,
2013-02-18 20:31:00,16.2,9.6,29.70,NW,315,10.5,10.5,75,0.00,,,0.00,WUHU216HW,2013-02-19 02:31:00,
2013-02-18 20:35:00,16.2,9.6,29.70,NW,315,10.5,10.5,75,0.00,,,0.00,WUHU216HW,2013-02-19 02:35:00,
2013-02-18 20:36:00,16.2,9.6,29.70,NW,315,10.5,10.5,75,0.00,,,0.00,WUHU216HW,2013-02-19 02:36:00,
2013-02-18 21:00:00,15.3,8.5,29.71,NW,315,14.1,14.1,74,0.00,,,0.00,WUHU216HW,2013-02-19 03:00:00,
2013-02-18 21:05:00,15.3,8.5,29.71,NW,315,17.0,17.0,74,0.00,,,0.00,WUHU216HW,2013-02-19 03:05:00,
2013-02-18 21:06:00,15.3,8.5,29.71,NW,315,17.0,17.0,74,0.00,,,0.00,WUHU216HW,2013-02-19 03:06:00,
2013-02-18 21:30:00,14.0,7.0,29.72,NW,315,17.0,17.0,73,0.00,,,0.00,WUHU216HW,2013-02-19 03:30:00,
2013-02-18 21:35:00,14.0,7.0,29.72,NW,315,17.0,17.0,73,0.00,,,0.00,WUHU216HW,2013-02-19 03:35:00,
2013-02-18 22:00:00,13.5,6.1,29.72,North,0,11.9,11.9,72,0.00,,,0.00,WUHU216HW,2013-02-19 04:00:00,
2013-02-18 22:05:00,13.5,6.1,29.72,NW,315,7.6,11.9,72,0.00,,,0.00,WUHU216HW,2013-02-19 04:05:00,
2013-02-18 22:10:00,13.5,6.1,29.72,NW,315,7.6,11.9,72,0.00,,,0.00,WUHU216HW,2013-02-19 04:10:00,
2013-02-18 22:30:00,12.6,5.6,29.72,NNW,338,15.0,15.0,73,0.00,,,0.00,WUHU216HW,2013-02-19 04:30:00,
2013-02-18 22:31:00,12.6,5.6,29.72,NNW,338,10.9,15.0,73,0.00,,,0.00,WUHU216HW,2013-02-19 04:31:00,
2013-02-18 22:35:00,12.6,5.6,29.72,NNW,338,6.9,15.0,73,0.00,,,0.00,WUHU216HW,2013-02-19 04:35:00,
2013-02-18 22:36:00,12.6,5.6,29.72,NNW,338,6.9,15.0,73,0.00,,,0.00,WUHU216HW,2013-02-19 04:36:00,
2013-02-18 22:40:00,12.6,5.6,29.72,NNW,338,6.9,6.9,73,0.00,,,0.00,WUHU216HW,2013-02-19 04:40:00,
2013-02-18 23:00:00,11.5,4.5,29.73,NNW,338,11.4,11.4,73,0.00,,,0.00,WUHU216HW,2013-02-19 05:00:00,
2013-02-18 23:01:00,11.5,4.5,29.73,NNW,338,11.4,11.4,73,0.00,,,0.00,WUHU216HW,2013-02-19 05:01:00,
2013-02-18 23:05:00,11.5,4.5,29.73,NNW,338,11.4,11.4,73,0.00,,,0.00,WUHU216HW,2013-02-19 05:05:00,
2013-02-18 23:06:00,11.5,4.5,29.73,NNW,338,11.4,11.4,73,0.00,,,0.00,WUHU216HW,2013-02-19 05:06:00,
2013-02-18 23:30:00,10.1,2.5,29.75,NNW,338,6.5,6.5,71,0.00,,,0.00,WUHU216HW,2013-02-19 05:30:00,
2013-02-18 23:35:00,10.1,2.8,29.75,NW,315,10.1,10.1,72,0.00,,,0.00,WUHU216HW,2013-02-19 05:35:00,
2013-02-18 23:40:00,10.1,2.8,29.75,NW,315,10.1,10.1,72,0.00,,,0.00,WUHU216HW,2013-02-19 05:40:00,